createdAt,value
2019-04-25T00:01:31.210Z,96.6
2019-04-25T00:02:45.452Z,96.9
2019-04-25T00:03:59.586Z,96.6
2019-04-25T00:05:13.824Z,96.7
2019-04-25T00:06:27.995Z,96.6
2019-04-25T00:07:42.156Z,96.5
2019-04-25T00:08:56.376Z,96.7
2019-04-25T00:10:10.656Z,96.2
2019-04-25T00:11:24.944Z,96.8
2019-04-25T00:12:38.885Z,96.6
2019-04-25T00:13:53.067Z,96.2
2019-04-25T00:15:07.270Z,95.8
2019-04-25T00:16:21.461Z,96.2
2019-04-25T00:17:35.630Z,96.1
2019-04-25T00:18:49.780Z,95.9
2019-04-25T00:20:04.063Z,95.2
2019-04-25T00:21:18.213Z,94.2
2019-04-25T00:22:32.352Z,94.7
2019-04-25T00:23:46.602Z,94.6
2019-04-25T00:25:00.837Z,94.6
2019-04-25T00:26:14.915Z,95.1
2019-04-25T00:27:29.172Z,95.2
2019-04-25T00:28:43.786Z,96.3
2019-04-25T00:29:57.481Z,96.1
2019-04-25T00:32:25.838Z,95.9
2019-04-25T00:33:40.085Z,96.4
2019-04-25T00:34:54.247Z,96.7
2019-04-25T00:36:08.398Z,96.7
2019-04-25T00:37:22.595Z,96.7
2019-04-25T00:39:50.963Z,96.7
2019-04-25T00:41:05.327Z,96.7
2019-04-25T00:42:19.342Z,97
2019-04-25T00:43:33.530Z,96.9
2019-04-25T00:44:47.717Z,97.3
2019-04-25T00:46:01.931Z,97.3
2019-04-25T00:47:16.182Z,96.6
2019-04-25T00:48:30.366Z,97.1
2019-04-25T00:49:44.481Z,96.9
2019-04-25T00:50:58.657Z,97.8
2019-04-25T00:52:12.845Z,97.5
2019-04-25T00:53:27.019Z,96.6
2019-04-25T00:54:41.210Z,96.7
2019-04-25T00:56:00.440Z,96.3
2019-04-25T00:57:09.612Z,96.4
2019-04-25T00:58:23.769Z,96.6
2019-04-25T00:59:37.949Z,96.7
2019-04-25T01:00:52.118Z,96.7
2019-04-25T01:02:06.407Z,96.5
2019-04-25T01:04:34.685Z,96.7
2019-04-25T01:05:48.957Z,96.8
2019-04-25T01:07:03.387Z,96.5
2019-04-25T01:08:17.260Z,96.4
2019-04-25T01:09:31.448Z,96.6
2019-04-25T01:10:45.679Z,96.9
2019-04-25T01:11:59.790Z,97.1
2019-04-25T01:13:13.975Z,96.7
2019-04-25T01:14:28.171Z,96.7
2019-04-25T01:16:56.589Z,97.1
2019-04-25T01:18:10.771Z,97.1
2019-04-25T01:19:24.957Z,96.5
2019-04-25T01:21:53.409Z,96.2
2019-04-25T01:23:07.497Z,96.2
2019-04-25T01:24:21.675Z,96.3
2019-04-25T01:25:35.902Z,95.6
2019-04-25T01:26:50.126Z,95.3
2019-04-25T01:28:04.243Z,96.3
2019-04-25T01:29:18.430Z,95.4
2019-04-25T01:30:32.626Z,96.2
2019-04-25T01:31:46.861Z,96
2019-04-25T01:33:01.130Z,96.2
2019-04-25T01:34:15.287Z,96.4
2019-04-25T01:35:29.399Z,96.3
2019-04-25T01:36:43.670Z,96.2
2019-04-25T01:37:57.782Z,96.9
2019-04-25T01:39:11.984Z,96.4
2019-04-25T01:40:26.238Z,96.4
2019-04-25T01:41:40.456Z,96.7
2019-04-25T01:42:54.543Z,96.5
2019-04-25T01:44:08.768Z,96.7
2019-04-25T01:45:23.006Z,96.9
2019-04-25T01:46:37.155Z,97
2019-04-25T01:47:51.322Z,97.5
2019-04-25T01:49:06.003Z,97.8
2019-04-25T01:50:19.696Z,97.6
2019-04-25T01:51:33.892Z,98.1
2019-04-25T01:52:48.101Z,98
2019-04-25T01:54:02.281Z,98.4
2019-04-25T01:55:16.474Z,98.2
2019-04-25T01:56:31.638Z,97.8
2019-04-25T01:57:44.852Z,98.1
2019-04-25T01:58:59.052Z,98.1
2019-04-25T02:00:13.253Z,98
2019-04-25T02:01:27.476Z,98.3
2019-04-25T02:02:41.632Z,98.1
2019-04-25T02:03:56.214Z,98.5
2019-04-25T02:06:24.185Z,98
2019-04-25T02:07:38.380Z,96.7
2019-04-25T02:08:52.574Z,96.5
2019-04-25T02:11:21.897Z,96.1
2019-04-25T02:12:35.426Z,96.2
2019-04-25T02:13:49.335Z,95.4
2019-04-25T02:15:03.573Z,95.7
2019-04-25T02:16:17.707Z,95.2
2019-04-25T02:17:31.911Z,95.5
2019-04-25T02:18:46.113Z,95.2
2019-04-25T02:20:00.300Z,96.5
2019-04-25T02:21:14.491Z,96.2
2019-04-25T02:22:28.679Z,96.1
2019-04-25T02:23:42.872Z,96.4
2019-04-25T02:24:57.156Z,96.6
2019-04-25T02:26:11.358Z,96.4
2019-04-25T02:27:25.709Z,96.5
2019-04-25T02:28:39.639Z,96.4
2019-04-25T02:29:53.862Z,97.2
2019-04-25T02:31:08.023Z,96.7
2019-04-25T02:32:22.214Z,97.1
2019-04-25T02:33:36.435Z,96.8
2019-04-25T02:34:50.607Z,96.4
2019-04-25T02:36:04.883Z,96.5
2019-04-25T02:37:19.021Z,95.6
2019-04-25T02:38:33.211Z,94.9
2019-04-25T02:39:47.370Z,94.7
2019-04-25T02:41:01.620Z,95.1
2019-04-25T02:42:15.852Z,95.2
2019-04-25T02:43:29.996Z,94.8
2019-04-25T02:44:44.128Z,95.2
2019-04-25T02:45:58.348Z,95.1
2019-04-25T02:47:12.502Z,95
2019-04-25T02:48:26.692Z,94.9
2019-04-25T02:49:40.924Z,94.8
2019-04-25T02:50:55.087Z,94.8
2019-04-25T02:52:10.764Z,94.8
2019-04-25T02:53:23.657Z,94.7
2019-04-25T02:55:52.008Z,94.4
2019-04-25T02:57:11.405Z,94.4
2019-04-25T02:58:20.322Z,94.5
2019-04-25T02:59:34.411Z,94.5
2019-04-25T03:00:48.578Z,94.8
2019-04-25T03:02:02.845Z,94.4
2019-04-25T03:03:16.959Z,94.4
2019-04-25T03:04:31.132Z,94.4
2019-04-25T03:05:45.389Z,94.3
2019-04-25T03:08:13.729Z,94.1
2019-04-25T03:09:27.926Z,94.1
2019-04-25T03:10:42.208Z,94.4
2019-04-25T03:11:56.324Z,94.8
2019-04-25T03:13:10.716Z,95.5
2019-04-25T03:14:24.709Z,94.8
2019-04-25T03:15:42.498Z,95.2
2019-04-25T03:16:56.106Z,94.7
2019-04-25T03:18:07.287Z,95
2019-04-25T03:20:36.672Z,95.3
2019-04-25T03:21:49.835Z,95.4
2019-04-25T03:23:04.110Z,95.5
2019-04-25T03:24:18.317Z,95.3
2019-04-25T03:25:32.614Z,94.8
2019-04-25T03:26:46.594Z,94.8
2019-04-25T03:28:00.955Z,94.9
2019-04-25T03:29:14.979Z,95
2019-04-25T03:30:29.203Z,94.7
2019-04-25T03:31:43.371Z,94.3
2019-04-25T03:32:57.636Z,94.4
2019-04-25T03:34:11.875Z,94.6
2019-04-25T03:35:25.966Z,94.6
2019-04-25T03:36:40.206Z,94.4
2019-04-25T03:37:54.336Z,93.6
2019-04-25T03:39:08.550Z,93.5
2019-04-25T03:40:22.834Z,93.2
2019-04-25T03:41:37.038Z,93.8
2019-04-25T03:42:51.126Z,94.1
2019-04-25T03:45:19.573Z,94.5
2019-04-25T03:46:33.720Z,94.5
2019-04-25T03:47:47.925Z,95
2019-04-25T03:49:02.173Z,95
2019-04-25T03:50:20.709Z,94.5
2019-04-25T03:51:30.514Z,93.4
2019-04-25T03:52:44.701Z,92.9
2019-04-25T03:53:58.918Z,93.2
2019-04-25T03:55:13.106Z,93.1
2019-04-25T03:56:29.011Z,93.4
2019-04-25T03:57:41.705Z,94.3
2019-04-25T03:58:55.799Z,94.6
2019-04-25T04:00:10.137Z,94.6
2019-04-25T04:01:24.186Z,94.2
2019-04-25T04:02:38.325Z,94.1
2019-04-25T04:03:52.552Z,93.6
2019-04-25T04:05:06.840Z,94.9
2019-04-25T04:06:20.969Z,94.6
2019-04-25T04:07:35.292Z,94.3
2019-04-25T04:08:49.406Z,94.5
2019-04-25T04:10:03.532Z,94.6
2019-04-25T04:11:19.430Z,95
2019-04-25T04:12:32.283Z,94.9
2019-04-25T04:13:46.180Z,95
2019-04-25T04:15:00.337Z,94.8
2019-04-25T04:16:14.528Z,95
2019-04-25T04:17:28.789Z,94.7
2019-04-25T04:18:43.016Z,94.5
2019-04-25T04:19:57.133Z,94.7
2019-04-25T04:21:11.346Z,93.8
2019-04-25T04:22:25.565Z,93.2
2019-04-25T04:23:39.737Z,93
2019-04-25T04:24:54.040Z,92.4
2019-04-25T04:26:08.827Z,92.5
2019-04-25T04:27:22.343Z,93
2019-04-25T04:28:36.740Z,93
2019-04-25T04:29:50.864Z,92.4
2019-04-25T04:31:04.941Z,92.7
2019-04-25T04:32:19.145Z,92.4
2019-04-25T04:33:33.347Z,92.6
2019-04-25T04:34:47.529Z,92.5
2019-04-25T04:36:01.775Z,92.5
2019-04-25T04:37:15.927Z,92.5
2019-04-25T04:38:30.123Z,92.4
2019-04-25T04:39:44.365Z,92.4
2019-04-25T04:40:58.627Z,92.6
2019-04-25T04:42:12.831Z,92.6
2019-04-25T04:43:26.957Z,92.3
2019-04-25T04:44:41.228Z,92.6
2019-04-25T04:45:55.391Z,92
2019-04-25T04:47:09.580Z,92.2
2019-04-25T04:48:23.827Z,91
2019-04-25T04:49:38.057Z,92
2019-04-25T04:50:52.196Z,92
2019-04-25T04:52:06.416Z,91.8
2019-04-25T04:53:20.617Z,91.4
2019-04-25T04:54:34.770Z,91.5
2019-04-25T04:55:49.061Z,91
2019-04-25T04:57:03.154Z,89.8
2019-04-25T04:59:31.506Z,87.6
2019-04-25T05:00:45.799Z,85.8
2019-04-25T05:01:59.888Z,85.6
2019-04-25T05:03:14.066Z,84.7
2019-04-25T05:04:28.237Z,85.7
2019-04-25T05:05:42.436Z,84.7
2019-04-25T05:06:56.594Z,84.2
2019-04-25T05:08:10.882Z,83.2
2019-04-25T05:09:25.055Z,81.9
2019-04-25T05:10:39.198Z,79.8
2019-04-25T05:11:53.580Z,80
2019-04-25T05:13:07.636Z,78.1
2019-04-25T05:14:22.062Z,79.4
2019-04-25T05:15:35.864Z,77.4
2019-04-25T05:16:49.977Z,77.7
2019-04-25T05:18:04.276Z,76.5
2019-04-25T05:19:18.372Z,74.8
2019-04-25T05:20:33.027Z,75.6
2019-04-25T05:21:46.685Z,78.2
2019-04-25T05:24:15.102Z,74.4
2019-04-25T05:25:30.323Z,73.7
2019-04-25T05:26:43.455Z,74.8
2019-04-25T05:27:57.524Z,73.1
2019-04-25T05:29:11.823Z,73.5
2019-04-25T05:30:25.957Z,72.4
2019-04-25T05:31:40.048Z,71.9
2019-04-25T05:32:54.121Z,73.5
2019-04-25T05:34:08.324Z,70.8
2019-04-25T05:35:22.487Z,70.7
2019-04-25T05:36:36.596Z,70.8
2019-04-25T05:37:50.751Z,70.4
2019-04-25T05:39:04.955Z,72.3
2019-04-25T05:40:19.079Z,70.4
2019-04-25T05:41:34.417Z,68.8
2019-04-25T05:42:49.433Z,69
2019-04-25T05:44:03.528Z,69.1
2019-04-25T05:45:15.693Z,67.2
2019-04-25T05:46:29.837Z,68.6
2019-04-25T05:47:44.170Z,67.8
2019-04-25T05:48:58.135Z,66.8
2019-04-25T05:50:12.381Z,66
2019-04-25T05:51:26.463Z,65.6
2019-04-25T05:52:40.637Z,66
2019-04-25T05:53:54.765Z,66.9
2019-04-25T05:55:08.905Z,64
2019-04-25T05:57:37.205Z,65.8
2019-04-25T05:58:51.371Z,65.1
2019-04-25T06:00:05.515Z,63.5
2019-04-25T06:01:21.970Z,62.9
2019-04-25T06:02:33.805Z,64.3
2019-04-25T06:03:48.057Z,64.9
2019-04-25T06:05:02.059Z,64.1
2019-04-25T06:06:16.234Z,63.6
2019-04-25T06:07:30.328Z,66.2
2019-04-25T06:08:44.456Z,65.3
2019-04-25T06:09:58.606Z,65.9
2019-04-25T06:11:12.735Z,65.9
2019-04-25T06:12:26.908Z,66.3
2019-04-25T06:13:41.071Z,68.4
2019-04-25T06:14:55.217Z,69.2
2019-04-25T06:16:09.397Z,66
2019-04-25T06:17:23.608Z,65.9
2019-04-25T06:18:37.615Z,69.1
2019-04-25T06:19:51.786Z,71.8
2019-04-25T06:21:06.014Z,66.3
2019-04-25T06:22:20.144Z,65.6
2019-04-25T06:23:34.209Z,65.1
2019-04-25T06:24:48.472Z,68.4
2019-04-25T06:26:02.624Z,66.3
2019-04-25T06:27:16.683Z,65.7
2019-04-25T06:28:34.731Z,66.9
2019-04-25T06:30:59.093Z,66.7
2019-04-25T06:32:13.415Z,64.4
2019-04-25T06:33:27.490Z,63.5
2019-04-25T06:34:41.528Z,58.7
2019-04-25T06:36:01.203Z,57.9
2019-04-25T06:38:24.303Z,59.9
2019-04-25T06:39:38.136Z,58.4
2019-04-25T06:40:52.240Z,57.6
2019-04-25T06:42:06.712Z,58.3
2019-04-25T06:43:20.557Z,56.4
2019-04-25T06:44:34.551Z,55.5
2019-04-25T06:45:48.742Z,56.3
2019-04-25T06:47:02.813Z,54.4
2019-04-25T06:48:16.931Z,53.9
2019-04-25T06:49:31.096Z,54.6
2019-04-25T06:50:45.365Z,53.3
2019-04-25T06:51:59.287Z,54.4
2019-04-25T06:53:13.402Z,55.4
2019-04-25T06:54:27.522Z,55.1
2019-04-25T06:55:41.834Z,52.6
2019-04-25T06:56:55.906Z,54.7
2019-04-25T06:58:09.977Z,54.2
2019-04-25T06:59:24.114Z,52.9
2019-04-25T07:00:38.183Z,51
2019-04-25T07:01:52.588Z,51.5
2019-04-25T07:03:06.370Z,51.2
2019-04-25T07:04:20.630Z,55.3
2019-04-25T07:05:34.449Z,51.7
2019-04-25T07:06:48.524Z,51.4
2019-04-25T07:08:02.636Z,55
2019-04-25T07:09:17.110Z,53
2019-04-25T07:10:30.814Z,52.3
2019-04-25T07:11:44.861Z,49.6
2019-04-25T07:12:59.044Z,50.2
2019-04-25T07:15:27.830Z,52
2019-04-25T07:16:41.243Z,50.1
2019-04-25T07:17:55.463Z,52.6
2019-04-25T07:19:09.447Z,51.7
2019-04-25T07:20:23.472Z,54.5
2019-04-25T07:21:37.572Z,53.1
2019-04-25T07:22:51.658Z,53.8
2019-04-25T07:24:05.732Z,54.3
2019-04-25T07:25:19.875Z,53.2
2019-04-25T07:26:34.168Z,54.6
2019-04-25T07:27:48.037Z,50
2019-04-25T07:29:02.111Z,52.2
2019-04-25T07:30:16.123Z,51.3
2019-04-25T07:31:30.281Z,53.3
2019-04-25T07:32:44.319Z,55.4
2019-04-25T07:33:58.789Z,58
2019-04-25T07:35:12.454Z,59.5
2019-04-25T07:36:26.636Z,53.4
2019-04-25T07:37:40.600Z,54.4
2019-04-25T07:38:54.704Z,55.7
2019-04-25T07:40:08.764Z,52.1
2019-04-25T07:41:22.940Z,52.9
2019-04-25T07:42:36.940Z,52.9
2019-04-25T07:43:51.178Z,49.1
2019-04-25T07:45:05.163Z,47.9
2019-04-25T07:46:19.191Z,46.5
2019-04-25T07:47:33.358Z,49.4
2019-04-25T07:48:47.367Z,44.4
2019-04-25T07:50:01.387Z,49.9
2019-04-25T07:51:15.621Z,46.1
2019-04-25T07:52:29.499Z,47.6
2019-04-25T07:53:43.609Z,51.5
2019-04-25T07:54:57.735Z,50.8
2019-04-25T07:56:13.038Z,49.3
2019-04-25T07:57:25.923Z,47.8
2019-04-25T07:58:39.937Z,51.7
2019-04-25T08:01:08.067Z,55
2019-04-25T08:02:22.100Z,47.9
2019-04-25T08:03:36.215Z,47.5
2019-04-25T08:04:50.506Z,47.4
2019-04-25T08:06:04.445Z,49.2
2019-04-25T08:07:21.583Z,51.1
2019-04-25T08:08:32.400Z,51.5
2019-04-25T08:09:46.917Z,46.4
2019-04-25T08:11:00.579Z,51.2
2019-04-25T08:12:14.585Z,54
2019-04-25T08:13:28.784Z,54.2
2019-04-25T08:14:42.984Z,53.2
2019-04-25T08:15:56.990Z,49.3
2019-04-25T08:17:10.946Z,51
2019-04-25T08:18:25.082Z,52.8
2019-04-25T08:19:39.244Z,53.3
2019-04-25T08:20:53.294Z,53.4
2019-04-25T08:22:07.367Z,52.8
2019-04-25T08:23:21.558Z,52.7
2019-04-25T08:24:35.704Z,47.1
2019-04-25T08:27:03.880Z,47.7
2019-04-25T08:28:19.975Z,51.2
2019-04-25T08:29:33.657Z,45.6
2019-04-25T08:30:45.927Z,48.2
2019-04-25T08:32:00.172Z,48.9
2019-04-25T08:33:14.063Z,54
2019-04-25T08:34:28.160Z,53
2019-04-25T08:35:42.262Z,49.7
2019-04-25T08:36:56.388Z,52
2019-04-25T08:38:10.494Z,53.3
2019-04-25T08:39:24.582Z,49.3
2019-04-25T08:40:38.677Z,47.2
2019-04-25T08:41:52.731Z,51
2019-04-25T08:43:06.831Z,46.1
2019-04-25T08:44:20.988Z,45.4
2019-04-25T08:45:35.046Z,45.1
2019-04-25T08:46:49.070Z,43.4
2019-04-25T08:48:03.227Z,45.9
2019-04-25T08:49:17.202Z,47.2
2019-04-25T08:50:31.695Z,44.7
2019-04-25T08:51:45.390Z,44.9
2019-04-25T08:52:59.417Z,43.6
2019-04-25T08:54:13.621Z,42.7
2019-04-25T08:55:27.695Z,44
2019-04-25T08:56:47.025Z,42.1
2019-04-25T08:57:55.738Z,42.6
2019-04-25T08:59:10.110Z,41.7
2019-04-25T09:00:24.034Z,44.4
2019-04-25T09:01:37.859Z,43.7
2019-04-25T09:02:51.884Z,43.1
2019-04-25T09:04:05.939Z,44.2
2019-04-25T09:05:20.170Z,45.1
2019-04-25T09:06:34.036Z,43.9
2019-04-25T09:07:48.113Z,46.1
2019-04-25T09:10:16.253Z,45.6
2019-04-25T09:11:30.361Z,47.4
2019-04-25T09:12:44.414Z,45.7
2019-04-25T09:13:58.453Z,49.9
2019-04-25T09:15:12.891Z,44.3
2019-04-25T09:16:26.650Z,47.4
2019-04-25T09:17:40.688Z,48
2019-04-25T09:18:54.849Z,46
2019-04-25T09:20:08.908Z,49.3
2019-04-25T09:21:22.983Z,46
2019-04-25T09:22:37.065Z,46.6
2019-04-25T09:23:51.109Z,46.2
2019-04-25T09:25:05.691Z,48.2
2019-04-25T09:26:20.700Z,46.8
2019-04-25T09:27:33.566Z,46.2
2019-04-25T09:28:47.444Z,48
2019-04-25T09:30:01.881Z,49
2019-04-25T09:31:15.656Z,47.9
2019-04-25T09:33:43.948Z,47.5
2019-04-25T09:34:57.920Z,48.1
2019-04-25T09:36:12.003Z,48.3
2019-04-25T09:37:26.222Z,47.9
2019-04-25T09:38:40.215Z,47.6
2019-04-25T09:39:54.290Z,48.8
2019-04-25T09:41:09.208Z,50.1
2019-04-25T09:42:22.580Z,50.2
2019-04-25T09:43:36.696Z,52.9
2019-04-25T09:44:50.847Z,51.3
2019-04-25T09:46:04.827Z,48.8
2019-04-25T09:47:19.006Z,49.3
2019-04-25T09:48:33.014Z,47.8
2019-04-25T09:49:47.060Z,47.8
2019-04-25T09:51:01.473Z,47.7
2019-04-25T09:52:15.343Z,49.3
2019-04-25T09:53:29.364Z,49.4
2019-04-25T09:54:43.487Z,51.7
2019-04-25T09:57:13.650Z,47.9
2019-04-25T09:58:27.590Z,48
2019-04-25T09:59:41.986Z,48.4
2019-04-25T10:00:53.833Z,46.2
2019-04-25T10:02:08.044Z,46.2
2019-04-25T10:03:22.292Z,43.7
2019-04-25T10:04:36.082Z,44.8
2019-04-25T10:05:50.152Z,47.6
2019-04-25T10:07:04.873Z,49.1
2019-04-25T10:08:18.482Z,48
2019-04-25T10:09:32.380Z,47.1
2019-04-25T10:10:46.522Z,51.3
2019-04-25T10:12:00.519Z,47.1
2019-04-25T10:13:14.582Z,48
2019-04-25T10:14:28.690Z,47.4
2019-04-25T10:15:42.829Z,48.5
2019-04-25T10:16:56.912Z,51.3
2019-04-25T10:18:10.869Z,50.1
2019-04-25T10:19:25.121Z,47.6
2019-04-25T10:20:39.030Z,46.8
2019-04-25T10:21:53.108Z,46.2
2019-04-25T10:23:07.194Z,49.8
2019-04-25T10:24:21.382Z,50.5
2019-04-25T10:25:35.462Z,50.2
2019-04-25T10:26:49.517Z,48.4
2019-04-25T10:28:03.525Z,51.8
2019-04-25T10:29:17.786Z,52.5
2019-04-25T10:30:31.856Z,53.4
2019-04-25T10:31:45.825Z,51.7
2019-04-25T10:32:59.917Z,54.5
2019-04-25T10:34:14.033Z,52
2019-04-25T10:35:28.118Z,55
2019-04-25T10:37:56.380Z,52.9
2019-04-25T10:39:11.239Z,52.4
2019-04-25T10:40:24.765Z,55
2019-04-25T10:41:38.643Z,54.5
2019-04-25T10:42:52.748Z,53.3
2019-04-25T10:44:06.950Z,52.2
2019-04-25T10:45:20.969Z,53.3
2019-04-25T10:46:35.048Z,49.4
2019-04-25T10:47:49.206Z,50.9
2019-04-25T10:49:03.259Z,49.6
2019-04-25T10:50:17.466Z,47.1
2019-04-25T10:51:31.466Z,49.8
2019-04-25T10:52:45.551Z,44.7
2019-04-25T10:53:59.687Z,48.5
2019-04-25T10:55:14.309Z,50.2
2019-04-25T10:56:28.368Z,47.7
2019-04-25T10:57:42.270Z,48.6
2019-04-25T10:58:55.946Z,45.6
2019-04-25T11:00:10.089Z,45.2
2019-04-25T11:01:24.456Z,47.4
2019-04-25T11:02:38.204Z,44.8
2019-04-25T11:03:52.505Z,44.9
2019-04-25T11:05:06.443Z,44.9
2019-04-25T11:06:20.511Z,41.3
2019-04-25T11:07:34.408Z,40.4
2019-04-25T11:08:48.438Z,38.2
2019-04-25T11:10:02.468Z,37.9
2019-04-25T11:11:16.545Z,39.6
2019-04-25T11:12:30.529Z,39.6
2019-04-25T11:13:45.468Z,39.3
2019-04-25T11:14:58.554Z,39.8
2019-04-25T11:16:12.567Z,41.5
2019-04-25T11:17:26.707Z,39.4
2019-04-25T11:18:40.738Z,38.2
2019-04-25T11:19:54.637Z,38.5
2019-04-25T11:21:08.794Z,37.8
2019-04-25T11:22:22.697Z,41.3
2019-04-25T11:23:36.791Z,40.2
2019-04-25T11:24:50.680Z,36.5
2019-04-25T11:27:28.505Z,36.3
2019-04-25T11:28:37.807Z,35.7
2019-04-25T11:29:46.718Z,34.7
2019-04-25T11:31:00.821Z,31.7
2019-04-25T11:32:14.691Z,36.1
2019-04-25T11:33:28.747Z,36.6
2019-04-25T11:34:44.493Z,39.2
2019-04-25T11:35:56.721Z,37.9
2019-04-25T11:37:10.744Z,37.7
2019-04-25T11:38:24.742Z,36
2019-04-25T11:39:38.784Z,35.4
2019-04-25T11:40:52.727Z,34.9
2019-04-25T11:42:06.757Z,35.7
2019-04-25T11:43:20.748Z,33.4
2019-04-25T11:44:34.832Z,35.4
2019-04-25T11:45:48.777Z,35.1
2019-04-25T11:47:02.797Z,38.3
2019-04-25T11:48:17.006Z,38.8
2019-04-25T11:49:30.835Z,39.6
2019-04-25T11:50:44.969Z,40.7
2019-04-25T11:51:58.910Z,38.3
2019-04-25T11:53:12.970Z,37.7
2019-04-25T11:54:27.003Z,35.3
2019-04-25T11:55:43.910Z,35
2019-04-25T11:56:56.744Z,37.6
2019-04-25T11:58:09.182Z,39.2
2019-04-25T11:59:23.158Z,39.5
2019-04-25T12:00:37.193Z,39.9
2019-04-25T12:01:51.430Z,39.2
2019-04-25T12:03:05.427Z,39.5
2019-04-25T12:04:19.393Z,40
2019-04-25T12:05:33.502Z,41.1
2019-04-25T12:06:50.531Z,41.8
2019-04-25T12:08:04.392Z,41.8
2019-04-25T12:09:18.390Z,41.8
2019-04-25T12:10:29.808Z,41.2
2019-04-25T12:11:43.781Z,42
2019-04-25T12:12:57.887Z,42.1
2019-04-25T12:14:11.981Z,44.6
2019-04-25T12:15:25.985Z,41.9
2019-04-25T12:16:40.083Z,43.9
2019-04-25T12:17:54.298Z,43.2
2019-04-25T12:19:08.304Z,45.7
2019-04-25T12:20:22.329Z,44.7
2019-04-25T12:21:36.662Z,47.4
2019-04-25T12:22:50.564Z,44.3
2019-04-25T12:24:04.799Z,47.4
2019-04-25T12:25:18.807Z,41.7
2019-04-25T12:26:32.812Z,45
2019-04-25T12:27:49.849Z,42.5
2019-04-25T12:29:04.566Z,45.9
2019-04-25T12:30:15.089Z,42.5
2019-04-25T12:31:34.489Z,45.4
2019-04-25T12:32:43.469Z,43.5
2019-04-25T12:33:57.380Z,43.5
2019-04-25T12:36:25.699Z,40.6
2019-04-25T12:37:39.686Z,43.6
2019-04-25T12:38:53.762Z,45.9
2019-04-25T12:40:07.900Z,47.4
2019-04-25T12:41:21.957Z,49
2019-04-25T12:42:36.133Z,47.6
2019-04-25T12:43:50.198Z,40.2
2019-04-25T12:45:04.214Z,41.7
2019-04-25T12:46:18.634Z,38.3
2019-04-25T12:47:32.551Z,39.8
2019-04-25T12:48:46.502Z,34.1
2019-04-25T12:50:00.457Z,33.1
2019-04-25T12:51:14.582Z,32.9
2019-04-25T12:52:28.710Z,31.3
2019-04-25T12:53:42.786Z,31.8
2019-04-25T12:54:56.752Z,32
2019-04-25T12:56:14.197Z,31.5
2019-04-25T12:57:24.783Z,35.3
2019-04-25T12:58:38.789Z,33.4
2019-04-25T12:59:52.895Z,33.4
2019-04-25T13:01:07.169Z,29.8
2019-04-25T13:02:20.895Z,32.1
2019-04-25T13:03:34.975Z,34.4
2019-04-25T13:04:48.969Z,34.5
2019-04-25T13:06:03.000Z,33.4
2019-04-25T13:07:17.040Z,35
2019-04-25T13:08:31.096Z,36.3
2019-04-25T13:09:45.132Z,33.7
2019-04-25T13:10:59.210Z,32.4
2019-04-25T13:12:13.396Z,32.3
2019-04-25T13:13:27.541Z,30.5
2019-04-25T13:14:41.559Z,30.8
2019-04-25T13:15:55.319Z,31.7
2019-04-25T13:17:09.381Z,30.1
2019-04-25T13:18:23.401Z,31.9
2019-04-25T13:19:37.557Z,33.6
2019-04-25T13:20:51.496Z,30.6
2019-04-25T13:22:05.558Z,28.8
2019-04-25T13:23:19.717Z,30.6
2019-04-25T13:24:37.082Z,29.1
2019-04-25T13:25:47.615Z,30.9
2019-04-25T13:27:01.847Z,29.2
2019-04-25T13:28:15.652Z,31.5
2019-04-25T13:29:29.661Z,31.6
2019-04-25T13:30:43.685Z,30.4
2019-04-25T13:31:57.866Z,33.4
2019-04-25T13:33:11.804Z,30.1
2019-04-25T13:34:25.939Z,30.6
2019-04-25T13:35:39.945Z,29.7
2019-04-25T13:36:53.843Z,33.2
2019-04-25T13:38:07.968Z,36.5
2019-04-25T13:39:22.008Z,33.8
2019-04-25T13:40:36.071Z,33.5
2019-04-25T13:41:50.464Z,34.7
2019-04-25T13:43:04.050Z,32.7
2019-04-25T13:44:18.120Z,35.3
2019-04-25T13:45:32.207Z,35
2019-04-25T13:46:46.548Z,31.9
2019-04-25T13:48:00.234Z,30.6
2019-04-25T13:49:14.261Z,29.5
2019-04-25T13:50:28.281Z,29.8
2019-04-25T13:51:42.765Z,29.9
2019-04-25T13:52:56.401Z,29.1
2019-04-25T13:54:10.474Z,29
2019-04-25T13:55:25.255Z,32.9
2019-04-25T13:56:38.494Z,30.6
2019-04-25T13:57:52.545Z,30
2019-04-25T13:59:06.599Z,30.9
2019-04-25T14:00:20.575Z,33.3
2019-04-25T14:01:34.625Z,29.3
2019-04-25T14:02:48.667Z,32.6
2019-04-25T14:04:02.812Z,32.4
2019-04-25T14:05:16.772Z,33.3
2019-04-25T14:06:30.914Z,35
2019-04-25T14:07:44.883Z,36.8
2019-04-25T14:09:00.054Z,34.3
2019-04-25T14:10:13.031Z,32.2
2019-04-25T14:11:27.235Z,32.8
2019-04-25T14:12:41.297Z,32
2019-04-25T14:13:55.309Z,29.7
2019-04-25T14:15:10.038Z,30.3
2019-04-25T14:16:23.298Z,30.1
2019-04-25T14:17:37.296Z,26.9
2019-04-25T14:18:51.388Z,28.1
2019-04-25T14:20:05.439Z,29.3
2019-04-25T14:21:19.495Z,28.2
2019-04-25T14:22:33.718Z,30
2019-04-25T14:23:47.510Z,30.3
2019-04-25T14:25:01.572Z,31.7
2019-04-25T14:26:52.453Z,31.3
2019-04-25T14:28:43.654Z,34.3
2019-04-25T14:29:57.722Z,33.4
2019-04-25T14:31:11.778Z,33.8
2019-04-25T14:32:25.859Z,33.7
2019-04-25T14:33:39.929Z,33.4
2019-04-25T14:34:54.120Z,34.6
2019-04-25T14:36:08.212Z,34.4
2019-04-25T14:37:22.085Z,34.9
2019-04-25T14:38:36.144Z,38.6
2019-04-25T14:39:50.231Z,36.5
2019-04-25T14:41:04.711Z,34.7
2019-04-25T14:42:18.572Z,33.9
2019-04-25T14:43:32.462Z,34.4
2019-04-25T14:44:46.509Z,36.7
2019-04-25T14:46:00.516Z,38.2
2019-04-25T14:47:14.562Z,34.6
2019-04-25T14:48:28.756Z,37.6
2019-04-25T14:49:42.724Z,32.4
2019-04-25T14:50:56.831Z,35.9
2019-04-25T14:52:10.873Z,37.2
2019-04-25T14:53:24.916Z,35.6
2019-04-25T14:54:38.998Z,34.5
2019-04-25T14:55:54.157Z,34.9
2019-04-25T14:57:07.229Z,34.2
2019-04-25T14:58:21.309Z,34.8
2019-04-25T14:59:36.083Z,34.9
2019-04-25T15:00:49.397Z,36
2019-04-25T15:02:03.457Z,34.1
2019-04-25T15:04:31.709Z,34.5
2019-04-25T15:05:45.740Z,34.6
2019-04-25T15:06:59.743Z,33.8
2019-04-25T15:08:13.893Z,35.6
2019-04-25T15:09:27.931Z,34.8
2019-04-25T15:10:41.951Z,37.1
2019-04-25T15:11:56.107Z,41.7
2019-04-25T15:13:10.129Z,39.1
2019-04-25T15:14:24.197Z,33.5
2019-04-25T15:15:38.305Z,38.9
2019-04-25T15:16:52.330Z,37.6
2019-04-25T15:18:06.417Z,34
2019-04-25T15:19:20.559Z,37
2019-04-25T15:20:34.528Z,31.6
2019-04-25T15:21:48.609Z,33.5
2019-04-25T15:23:02.733Z,33
2019-04-25T15:24:20.033Z,33.1
2019-04-25T15:25:32.552Z,33
2019-04-25T15:26:44.905Z,33.1
2019-04-25T15:27:58.978Z,33.1
2019-04-25T15:29:13.082Z,33.1
2019-04-25T15:30:30.811Z,34.9
2019-04-25T15:31:43.779Z,35
2019-04-25T15:32:56.503Z,34.7
2019-04-25T15:34:10.504Z,36.7
2019-04-25T15:35:23.727Z,36.4
2019-04-25T15:36:37.505Z,34.9
2019-04-25T15:37:51.809Z,35.2
2019-04-25T15:39:05.650Z,35.7
2019-04-25T15:40:19.897Z,37.8
2019-04-25T15:41:33.808Z,36.2
2019-04-25T15:42:48.003Z,36.7
2019-04-25T15:44:01.976Z,36.6
2019-04-25T15:45:16.098Z,37.6
2019-04-25T15:46:30.278Z,36.6
2019-04-25T15:47:44.251Z,38.2
2019-04-25T15:48:58.527Z,38.5
2019-04-25T15:50:12.408Z,38.6
2019-04-25T15:51:26.605Z,38.3
2019-04-25T15:52:40.673Z,37.1
2019-04-25T15:53:54.656Z,35.7
2019-04-25T15:55:08.766Z,34.9
2019-04-25T15:56:26.522Z,41.5
2019-04-25T15:57:36.944Z,39.5
2019-04-25T15:58:50.989Z,36.9
2019-04-25T16:00:05.376Z,38.8
2019-04-25T16:01:19.701Z,39.5
2019-04-25T16:02:33.346Z,42
2019-04-25T16:03:47.415Z,41.6
2019-04-25T16:05:01.600Z,40.4
2019-04-25T16:06:15.518Z,40.1
2019-04-25T16:07:29.608Z,41.1
2019-04-25T16:08:43.694Z,36.6
2019-04-25T16:09:57.795Z,37.7
2019-04-25T16:11:12.161Z,37.9
2019-04-25T16:12:26.098Z,36.4
2019-04-25T16:13:40.145Z,35.6
2019-04-25T16:14:54.177Z,38.1
2019-04-25T16:16:08.262Z,38.3
2019-04-25T16:17:22.360Z,41.5
2019-04-25T16:18:36.695Z,37.9
2019-04-25T16:19:50.775Z,39.8
2019-04-25T16:21:04.826Z,38.5
2019-04-25T16:22:18.755Z,37.9
2019-04-25T16:23:32.850Z,40
2019-04-25T16:24:46.931Z,38.9
2019-04-25T16:26:01.151Z,39.4
2019-04-25T16:27:15.321Z,40.8
2019-04-25T16:28:30.243Z,35.7
2019-04-25T16:29:43.330Z,38.9
2019-04-25T16:30:57.470Z,37
2019-04-25T16:32:11.534Z,37
2019-04-25T16:33:25.606Z,39.5
2019-04-25T16:35:53.871Z,39.7
2019-04-25T16:37:07.978Z,36.6
2019-04-25T16:38:21.967Z,37.5
2019-04-25T16:39:36.213Z,43.8
2019-04-25T16:40:50.219Z,39.2
2019-04-25T16:42:04.432Z,39
2019-04-25T16:43:18.412Z,38.5
2019-04-25T16:44:32.494Z,39.3
2019-04-25T16:45:46.723Z,37.4
2019-04-25T16:47:00.722Z,41.3
2019-04-25T16:48:14.804Z,42
2019-04-25T16:49:28.880Z,41.4
2019-04-25T16:50:43.038Z,40.3
2019-04-25T16:51:57.061Z,40.5
2019-04-25T16:53:11.163Z,39.7
2019-04-25T16:55:44.763Z,44.9
2019-04-25T16:56:53.626Z,39.9
2019-04-25T16:58:07.550Z,39.5
2019-04-25T17:00:35.972Z,39.6
2019-04-25T17:01:49.847Z,37.2
2019-04-25T17:03:03.914Z,34.8
2019-04-25T17:04:18.128Z,35.7
2019-04-25T17:05:32.148Z,37.5
2019-04-25T17:06:46.336Z,34.3
2019-04-25T17:08:00.385Z,34.8
2019-04-25T17:09:14.352Z,35.4
2019-04-25T17:10:28.460Z,34.6